Albany, New York
Traffic Map
Current Weather Conditions
Albany, New York
Scattered Clouds
Scattered Clouds
-5°
Feels Like: -9°
Wind Chill: -9° Ceiling: Unl
Heat Index: -5° Visibility: 10mi
Dew Point: -9° Wind: 6mph
Humidity: 72% Direction: 10° (N)
Pressure: 30.32in Gusts: 0mph
Raw Report DataKALB 201251Z 01005KT 10SM SCT018 SCT033 M05/M09 A3032 RMK AO2 SLP272 SCT033 V BKN T10501094
Traffic Incident Summary
Active as of:
Severity:
Category:
InformationThere was an issue retrieving the traffic information for this location. Please try a different location or try again shortly.
Advertisements
Track Severe Weather on mobile